createdAt,value
2023-02-16T00:03:00.464Z,5.50
2023-02-16T00:08:02.649Z,5.50
2023-02-16T00:13:36.404Z,5.40
2023-02-16T00:18:38.447Z,5.20
2023-02-16T00:23:40.614Z,5.50
2023-02-16T00:28:42.970Z,5.50
2023-02-16T00:33:46.164Z,5.20
2023-02-16T00:38:48.163Z,5.20
2023-02-16T00:43:50.265Z,5.20
2023-02-16T00:48:52.354Z,5.20
2023-02-16T00:53:54.410Z,5.20
2023-02-16T00:58:57.343Z,5.20
2023-02-16T01:04:04.338Z,5.20
2023-02-16T01:09:33.711Z,5.20
2023-02-16T01:14:36.267Z,5.10
2023-02-16T01:19:38.323Z,5.10
2023-02-16T01:24:40.432Z,5.20
2023-02-16T01:29:42.551Z,5.30
2023-02-16T01:34:44.579Z,5.20
2023-02-16T01:39:46.589Z,5.10
2023-02-16T01:44:52.623Z,5.10
2023-02-16T01:49:56.853Z,5.10
2023-02-16T01:55:02.082Z,5.10
2023-02-16T02:00:07.081Z,5.10
2023-02-16T02:05:37.747Z,5.10
2023-02-16T02:10:46.209Z,5.20
2023-02-16T02:15:48.717Z,5.30
2023-02-16T02:21:29.896Z,5.20
2023-02-16T02:26:35.072Z,5.10
2023-02-16T02:31:55.961Z,5.30
2023-02-16T02:37:02.705Z,5.10
2023-02-16T02:42:04.809Z,5.20
2023-02-16T02:47:08.183Z,5.20
2023-02-16T02:52:10.931Z,5.10
2023-02-16T02:57:31.578Z,5.20
2023-02-16T03:02:35.656Z,5.10
2023-02-16T03:07:47.475Z,5.10
2023-02-16T03:12:49.513Z,5.10
2023-02-16T03:18:11.134Z,5.00
2023-02-16T03:23:31.549Z,5.00
2023-02-16T03:28:52.564Z,5.00
2023-02-16T03:33:55.012Z,5.10
2023-02-16T03:38:58.269Z,5.00
2023-02-16T03:44:00.734Z,5.20
2023-02-16T03:49:02.909Z,5.00
2023-02-16T03:54:04.977Z,5.00
2023-02-16T03:59:07.038Z,5.00
2023-02-16T04:04:09.044Z,5.00
2023-02-16T04:09:11.075Z,5.10
2023-02-16T04:14:13.135Z,4.90
2023-02-16T04:19:15.205Z,4.90
2023-02-16T04:24:17.189Z,4.90
2023-02-16T04:29:19.226Z,5.00
2023-02-16T04:34:21.151Z,5.30
2023-02-16T04:39:23.162Z,5.40
2023-02-16T04:44:25.180Z,5.10
2023-02-16T04:49:27.184Z,5.00
2023-02-16T04:54:29.821Z,5.10
2023-02-16T04:59:31.822Z,4.90
2023-02-16T05:04:34.296Z,5.10
2023-02-16T05:14:41.688Z,4.90
2023-02-16T05:19:44.903Z,4.90
2023-02-16T05:24:47.238Z,4.90
2023-02-16T05:29:49.292Z,4.90
2023-02-16T05:34:51.270Z,5.00
2023-02-16T05:39:53.417Z,4.80
2023-02-16T05:44:55.353Z,4.80
2023-02-16T05:49:57.485Z,4.80
2023-02-16T05:54:59.494Z,4.80
2023-02-16T06:00:01.864Z,4.40
2023-02-16T06:05:06.455Z,4.90
2023-02-16T06:10:08.734Z,4.70
2023-02-16T06:15:10.879Z,4.70
2023-02-16T06:20:12.954Z,4.90
2023-02-16T06:25:14.938Z,4.60
2023-02-16T06:30:17.082Z,4.70
2023-02-16T06:40:21.643Z,4.70
2023-02-16T06:45:23.625Z,4.70
2023-02-16T06:50:25.600Z,4.80
2023-02-16T06:55:27.630Z,4.80
2023-02-16T07:00:30.087Z,4.80
2023-02-16T07:05:32.208Z,5.00
2023-02-16T07:10:48.665Z,4.70
2023-02-16T07:15:51.870Z,4.80
2023-02-16T07:20:53.884Z,4.90
2023-02-16T07:25:55.840Z,5.00
2023-02-16T07:30:57.897Z,4.90
2023-02-16T07:35:59.996Z,4.90
2023-02-16T07:41:02.494Z,5.00
2023-02-16T07:46:14.430Z,5.00
2023-02-16T07:51:27.164Z,4.90
2023-02-16T07:56:30.383Z,5.20
2023-02-16T08:01:32.427Z,4.90
2023-02-16T08:06:34.872Z,4.90
2023-02-16T08:11:36.816Z,4.90
2023-02-16T08:16:38.856Z,5.00
2023-02-16T08:21:41.888Z,5.10
2023-02-16T08:26:44.750Z,5.20
2023-02-16T08:31:47.621Z,5.20
2023-02-16T08:36:56.338Z,5.30
2023-02-16T08:42:00.095Z,5.40
2023-02-16T08:47:02.888Z,5.50
2023-02-16T08:52:05.329Z,5.50
2023-02-16T08:57:07.331Z,5.60
2023-02-16T09:02:09.897Z,5.70
2023-02-16T09:07:11.893Z,5.80
2023-02-16T09:12:13.830Z,5.80
2023-02-16T09:17:16.757Z,6.00
2023-02-16T09:22:18.759Z,6.10
2023-02-16T09:27:20.718Z,6.10
2023-02-16T09:32:22.756Z,6.30
2023-02-16T09:37:24.834Z,6.40
2023-02-16T09:42:38.404Z,6.50
2023-02-16T09:47:44.964Z,6.70
2023-02-16T09:53:08.641Z,6.90
2023-02-16T09:58:27.120Z,7.00
2023-02-16T10:03:37.372Z,7.10
2023-02-16T10:08:41.724Z,7.20
2023-02-16T10:13:49.530Z,7.30
2023-02-16T10:18:51.927Z,7.40
2023-02-16T10:23:56.590Z,7.50
2023-02-16T10:29:00.394Z,7.60
2023-02-16T10:34:18.034Z,7.30
2023-02-16T10:39:20.110Z,7.80
2023-02-16T10:44:29.167Z,8.10
2023-02-16T10:49:32.324Z,8.30
2023-02-16T10:54:35.138Z,8.60
2023-02-16T10:59:39.020Z,8.50
2023-02-16T11:04:42.981Z,8.20
2023-02-16T11:09:46.526Z,8.90
2023-02-16T11:14:51.343Z,9.20
2023-02-16T11:19:55.088Z,9.20
2023-02-16T11:24:59.610Z,9.50
2023-02-16T11:30:22.216Z,9.80
2023-02-16T11:35:24.333Z,9.80
2023-02-16T11:40:28.483Z,10.30
2023-02-16T11:45:32.969Z,10.50
2023-02-16T11:50:38.441Z,10.70
2023-02-16T11:55:43.212Z,10.90
2023-02-16T12:00:50.997Z,11.00
2023-02-16T12:05:53.100Z,11.10
2023-02-16T12:11:16.535Z,11.20
2023-02-16T12:16:43.823Z,11.10
2023-02-16T12:21:48.126Z,11.10
2023-02-16T12:26:53.168Z,11.10
2023-02-16T12:32:06.812Z,11.30
2023-02-16T12:37:25.682Z,11.40
2023-02-16T12:42:35.737Z,11.70
2023-02-16T12:47:46.527Z,11.80
2023-02-16T12:53:02.272Z,12.00
2023-02-16T12:58:14.927Z,12.70
2023-02-16T13:03:16.900Z,12.80
2023-02-16T13:08:39.271Z,12.90
2023-02-16T13:13:42.995Z,12.90
2023-02-16T13:18:46.818Z,13.10
2023-02-16T13:24:03.703Z,13.40
2023-02-16T13:29:05.876Z,13.40
2023-02-16T13:34:16.063Z,13.30
2023-02-16T13:39:22.595Z,13.30
2023-02-16T13:44:36.856Z,13.50
2023-02-16T13:49:42.730Z,13.50
2023-02-16T13:54:50.013Z,13.60
2023-02-16T13:59:59.561Z,13.60
2023-02-16T14:05:04.160Z,13.60
2023-02-16T14:10:06.676Z,13.90
2023-02-16T14:15:18.389Z,13.60
2023-02-16T14:20:20.754Z,13.50
2023-02-16T14:25:22.781Z,13.10
2023-02-16T14:30:27.939Z,13.20
2023-02-16T14:35:33.883Z,13.20
2023-02-16T14:40:35.952Z,13.10
2023-02-16T14:45:50.788Z,13.10
2023-02-16T14:50:56.495Z,13.10
2023-02-16T14:56:06.669Z,12.90
2023-02-16T15:01:13.704Z,12.90
2023-02-16T15:06:33.797Z,12.80
2023-02-16T15:12:00.396Z,12.80
2023-02-16T15:17:06.416Z,12.70
2023-02-16T15:22:19.940Z,12.60
2023-02-16T15:27:23.604Z,12.60
2023-02-16T15:32:25.738Z,12.60
2023-02-16T15:37:33.932Z,12.50
2023-02-16T15:42:37.399Z,12.50
2023-02-16T15:47:39.441Z,12.30
2023-02-16T15:52:41.542Z,12.40
2023-02-16T15:57:43.599Z,12.40
2023-02-16T16:02:49.750Z,12.30
2023-02-16T16:07:52.977Z,12.30
2023-02-16T16:12:58.035Z,12.30
2023-02-16T16:18:02.927Z,12.20
2023-02-16T16:23:17.119Z,12.00
2023-02-16T16:28:28.403Z,12.10
2023-02-16T16:33:50.366Z,12.00
2023-02-16T16:39:07.931Z,11.80
2023-02-16T16:44:28.227Z,11.80
2023-02-16T16:49:30.574Z,11.80
2023-02-16T16:54:35.513Z,11.70
2023-02-16T16:59:37.457Z,11.70
2023-02-16T17:04:39.462Z,11.70
2023-02-16T17:09:41.504Z,11.60
2023-02-16T17:14:43.491Z,11.60
2023-02-16T17:19:45.519Z,11.60
2023-02-16T17:24:47.593Z,11.60
2023-02-16T17:29:49.650Z,11.40
2023-02-16T17:34:51.713Z,11.60
2023-02-16T17:39:53.830Z,11.60
2023-02-16T17:44:55.820Z,11.50
2023-02-16T17:49:57.769Z,11.50
2023-02-16T17:54:59.892Z,11.50
2023-02-16T18:00:02.094Z,11.50
2023-02-16T18:05:08.066Z,11.40
2023-02-16T18:10:15.533Z,11.50
2023-02-16T18:15:17.943Z,11.20
2023-02-16T18:20:20.150Z,11.30
2023-02-16T18:25:22.236Z,11.30
2023-02-16T18:30:24.556Z,11.20
2023-02-16T18:35:26.696Z,11.20
2023-02-16T18:40:28.679Z,11.30
2023-02-16T18:45:30.684Z,11.10
2023-02-16T18:50:32.701Z,11.20
2023-02-16T18:55:35.083Z,10.90
2023-02-16T19:00:37.185Z,10.80
2023-02-16T19:05:39.241Z,10.80
2023-02-16T19:10:41.319Z,10.50
2023-02-16T19:15:43.383Z,10.40
2023-02-16T19:20:45.437Z,10.20
2023-02-16T19:25:47.504Z,10.40
2023-02-16T19:30:50.281Z,10.00
2023-02-16T19:35:59.200Z,9.80
2023-02-16T19:41:01.801Z,9.70
2023-02-16T19:46:04.628Z,9.60
2023-02-16T19:51:07.789Z,9.50
2023-02-16T19:56:12.525Z,9.70
2023-02-16T20:01:18.518Z,9.50
2023-02-16T20:06:26.282Z,9.60
2023-02-16T20:11:28.914Z,9.60
2023-02-16T20:16:31.095Z,9.90
2023-02-16T20:21:33.357Z,9.70
2023-02-16T20:26:39.924Z,9.80
2023-02-16T20:31:44.106Z,9.90
2023-02-16T20:36:46.236Z,10.00
2023-02-16T20:41:48.275Z,10.00
2023-02-16T20:46:51.235Z,10.10
2023-02-16T20:51:53.470Z,10.10
2023-02-16T20:56:55.609Z,10.20
2023-02-16T21:01:58.020Z,10.40
2023-02-16T21:07:00.052Z,10.50
2023-02-16T21:12:02.094Z,10.50
2023-02-16T21:17:04.138Z,10.70
2023-02-16T21:22:06.151Z,10.80
2023-02-16T21:27:08.189Z,10.80
2023-02-16T21:32:10.566Z,11.10
2023-02-16T21:37:12.596Z,11.20
2023-02-16T21:42:14.594Z,11.60
2023-02-16T21:47:35.242Z,11.40
2023-02-16T21:52:37.267Z,11.40
2023-02-16T21:57:39.321Z,11.50
2023-02-16T22:02:41.297Z,11.50
2023-02-16T22:07:43.289Z,11.60
2023-02-16T22:12:45.262Z,11.70
2023-02-16T22:17:49.266Z,11.80
2023-02-16T22:22:54.273Z,12.00
2023-02-16T22:27:56.429Z,11.80
2023-02-16T22:32:58.469Z,11.90
2023-02-16T22:38:00.588Z,11.90
2023-02-16T22:43:02.610Z,12.10
2023-02-16T22:48:04.823Z,12.10
2023-02-16T22:53:06.883Z,12.20
2023-02-16T22:58:08.911Z,12.30
2023-02-16T23:03:10.928Z,12.40
2023-02-16T23:08:13.108Z,12.50
2023-02-16T23:13:15.053Z,12.60
2023-02-16T23:18:17.109Z,12.80
2023-02-16T23:23:19.097Z,12.90
2023-02-16T23:28:21.060Z,13.00
2023-02-16T23:33:23.440Z,13.00
2023-02-16T23:38:26.032Z,13.40
2023-02-16T23:43:28.053Z,13.40
2023-02-16T23:48:30.582Z,13.30
2023-02-16T23:58:36.424Z,13.40
